sensor_id;sensor_type;location;lat;lon;timestamp;P1;durP1;ratioP1;P2;durP2;ratioP2
65275;SDS011;51875;49.994;14.052;2023-04-30T00:00:37;12.80;;;8.82;;
65275;SDS011;51875;49.994;14.052;2023-04-30T00:02:13;15.05;;;9.02;;
65275;SDS011;51875;49.994;14.052;2023-04-30T00:03:28;14.60;;;8.77;;
65275;SDS011;51875;49.994;14.052;2023-04-30T00:04:44;14.73;;;9.30;;
65275;SDS011;51875;49.994;14.052;2023-04-30T00:05:59;15.80;;;9.68;;
65275;SDS011;51875;49.994;14.052;2023-04-30T00:07:15;16.02;;;8.90;;
65275;SDS011;51875;49.994;14.052;2023-04-30T00:08:30;12.60;;;8.68;;
65275;SDS011;51875;49.994;14.052;2023-04-30T00:09:46;13.15;;;8.70;;
65275;SDS011;51875;49.994;14.052;2023-04-30T00:11:02;15.30;;;9.25;;
65275;SDS011;51875;49.994;14.052;2023-04-30T00:12:17;18.77;;;9.23;;
65275;SDS011;51875;49.994;14.052;2023-04-30T00:13:33;14.95;;;9.32;;
65275;SDS011;51875;49.994;14.052;2023-04-30T00:14:48;14.32;;;8.50;;
65275;SDS011;51875;49.994;14.052;2023-04-30T00:16:04;16.67;;;9.20;;
65275;SDS011;51875;49.994;14.052;2023-04-30T00:17:20;14.85;;;9.25;;
65275;SDS011;51875;49.994;14.052;2023-04-30T00:18:36;14.10;;;9.57;;
65275;SDS011;51875;49.994;14.052;2023-04-30T00:19:52;15.20;;;9.40;;
65275;SDS011;51875;49.994;14.052;2023-04-30T00:21:08;13.98;;;8.93;;
65275;SDS011;51875;49.994;14.052;2023-04-30T00:22:24;14.15;;;8.80;;
65275;SDS011;51875;49.994;14.052;2023-04-30T00:23:39;13.13;;;9.02;;
65275;SDS011;51875;49.994;14.052;2023-04-30T00:24:55;12.88;;;8.63;;
65275;SDS011;51875;49.994;14.052;2023-04-30T00:26:10;12.77;;;8.23;;
65275;SDS011;51875;49.994;14.052;2023-04-30T00:27:26;14.07;;;9.25;;
65275;SDS011;51875;49.994;14.052;2023-04-30T00:28:42;13.35;;;9.05;;
65275;SDS011;51875;49.994;14.052;2023-04-30T00:29:57;13.82;;;9.15;;
65275;SDS011;51875;49.994;14.052;2023-04-30T00:31:13;14.05;;;9.52;;
65275;SDS011;51875;49.994;14.052;2023-04-30T00:32:28;13.88;;;8.80;;
65275;SDS011;51875;49.994;14.052;2023-04-30T00:33:44;14.23;;;9.38;;
65275;SDS011;51875;49.994;14.052;2023-04-30T00:35:00;16.13;;;9.70;;
65275;SDS011;51875;49.994;14.052;2023-04-30T00:36:15;13.63;;;7.93;;
65275;SDS011;51875;49.994;14.052;2023-04-30T00:37:31;13.82;;;8.80;;
65275;SDS011;51875;49.994;14.052;2023-04-30T00:38:46;16.50;;;8.93;;
65275;SDS011;51875;49.994;14.052;2023-04-30T00:40:02;13.85;;;9.27;;
65275;SDS011;51875;49.994;14.052;2023-04-30T00:41:18;13.30;;;8.27;;
65275;SDS011;51875;49.994;14.052;2023-04-30T00:42:35;12.98;;;8.38;;
65275;SDS011;51875;49.994;14.052;2023-04-30T00:43:50;12.55;;;8.48;;
65275;SDS011;51875;49.994;14.052;2023-04-30T00:45:06;14.57;;;8.88;;
65275;SDS011;51875;49.994;14.052;2023-04-30T00:46:22;15.85;;;9.40;;
65275;SDS011;51875;49.994;14.052;2023-04-30T00:47:37;12.23;;;9.00;;
65275;SDS011;51875;49.994;14.052;2023-04-30T00:48:53;14.95;;;9.00;;
65275;SDS011;51875;49.994;14.052;2023-04-30T00:50:09;15.13;;;9.77;;
65275;SDS011;51875;49.994;14.052;2023-04-30T00:51:25;13.68;;;9.63;;
65275;SDS011;51875;49.994;14.052;2023-04-30T00:52:41;13.95;;;9.52;;
65275;SDS011;51875;49.994;14.052;2023-04-30T00:53:59;15.18;;;9.75;;
65275;SDS011;51875;49.994;14.052;2023-04-30T00:55:17;14.25;;;9.30;;
65275;SDS011;51875;49.994;14.052;2023-04-30T00:56:33;12.50;;;9.30;;
65275;SDS011;51875;49.994;14.052;2023-04-30T00:57:48;12.02;;;9.00;;
65275;SDS011;51875;49.994;14.052;2023-04-30T00:59:04;20.88;;;11.10;;
65275;SDS011;51875;49.994;14.052;2023-04-30T01:00:20;14.23;;;9.38;;
65275;SDS011;51875;49.994;14.052;2023-04-30T01:01:36;14.50;;;10.07;;
65275;SDS011;51875;49.994;14.052;2023-04-30T01:02:52;14.85;;;9.38;;
65275;SDS011;51875;49.994;14.052;2023-04-30T01:04:10;12.80;;;9.02;;
65275;SDS011;51875;49.994;14.052;2023-04-30T01:05:26;12.25;;;8.13;;
65275;SDS011;51875;49.994;14.052;2023-04-30T01:06:41;11.70;;;8.07;;
65275;SDS011;51875;49.994;14.052;2023-04-30T01:07:57;15.02;;;8.25;;
65275;SDS011;51875;49.994;14.052;2023-04-30T01:09:13;12.88;;;8.75;;
65275;SDS011;51875;49.994;14.052;2023-04-30T01:10:29;12.82;;;8.68;;
65275;SDS011;51875;49.994;14.052;2023-04-30T01:13:38;13.68;;;9.07;;
65275;SDS011;51875;49.994;14.052;2023-04-30T01:15:09;12.77;;;8.95;;
65275;SDS011;51875;49.994;14.052;2023-04-30T01:16:35;13.98;;;9.32;;
65275;SDS011;51875;49.994;14.052;2023-04-30T01:17:58;12.60;;;9.25;;
65275;SDS011;51875;49.994;14.052;2023-04-30T01:20:56;13.98;;;8.90;;
65275;SDS011;51875;49.994;14.052;2023-04-30T01:22:24;14.48;;;9.75;;
65275;SDS011;51875;49.994;14.052;2023-04-30T01:28:21;15.95;;;10.68;;
65275;SDS011;51875;49.994;14.052;2023-04-30T01:29:39;15.20;;;10.63;;
65275;SDS011;51875;49.994;14.052;2023-04-30T01:30:57;17.48;;;11.27;;
65275;SDS011;51875;49.994;14.052;2023-04-30T01:32:12;15.10;;;10.07;;
65275;SDS011;51875;49.994;14.052;2023-04-30T01:33:28;15.07;;;10.25;;
65275;SDS011;51875;49.994;14.052;2023-04-30T01:34:43;18.20;;;9.25;;
65275;SDS011;51875;49.994;14.052;2023-04-30T01:37:28;15.00;;;10.20;;
65275;SDS011;51875;49.994;14.052;2023-04-30T01:40:20;14.65;;;9.40;;
65275;SDS011;51875;49.994;14.052;2023-04-30T01:46:28;17.27;;;11.02;;
65275;SDS011;51875;49.994;14.052;2023-04-30T01:47:47;19.17;;;12.05;;
65275;SDS011;51875;49.994;14.052;2023-04-30T01:49:18;20.63;;;12.00;;
65275;SDS011;51875;49.994;14.052;2023-04-30T01:52:16;19.80;;;12.32;;
65275;SDS011;51875;49.994;14.052;2023-04-30T01:53:39;16.17;;;11.20;;
65275;SDS011;51875;49.994;14.052;2023-04-30T01:55:07;21.13;;;11.57;;
65275;SDS011;51875;49.994;14.052;2023-04-30T01:56:35;16.13;;;11.40;;
65275;SDS011;51875;49.994;14.052;2023-04-30T01:57:57;16.33;;;11.20;;
65275;SDS011;51875;49.994;14.052;2023-04-30T01:59:14;18.77;;;12.43;;
65275;SDS011;51875;49.994;14.052;2023-04-30T02:00:31;16.52;;;11.65;;
65275;SDS011;51875;49.994;14.052;2023-04-30T02:01:47;18.38;;;12.00;;
65275;SDS011;51875;49.994;14.052;2023-04-30T02:03:03;18.02;;;12.02;;
65275;SDS011;51875;49.994;14.052;2023-04-30T02:04:19;21.52;;;12.98;;
65275;SDS011;51875;49.994;14.052;2023-04-30T02:05:34;17.52;;;10.82;;
65275;SDS011;51875;49.994;14.052;2023-04-30T02:06:50;18.88;;;11.55;;
65275;SDS011;51875;49.994;14.052;2023-04-30T02:08:05;16.92;;;11.23;;
65275;SDS011;51875;49.994;14.052;2023-04-30T02:09:21;16.58;;;10.63;;
65275;SDS011;51875;49.994;14.052;2023-04-30T02:10:38;18.60;;;11.70;;
65275;SDS011;51875;49.994;14.052;2023-04-30T02:11:53;17.60;;;11.35;;
65275;SDS011;51875;49.994;14.052;2023-04-30T02:13:09;17.60;;;11.70;;
65275;SDS011;51875;49.994;14.052;2023-04-30T02:14:26;18.75;;;11.40;;
65275;SDS011;51875;49.994;14.052;2023-04-30T02:15:41;16.00;;;11.32;;
65275;SDS011;51875;49.994;14.052;2023-04-30T02:16:57;16.10;;;10.82;;
65275;SDS011;51875;49.994;14.052;2023-04-30T02:18:12;18.60;;;11.93;;
65275;SDS011;51875;49.994;14.052;2023-04-30T02:19:28;16.75;;;11.32;;
65275;SDS011;51875;49.994;14.052;2023-04-30T02:20:43;15.35;;;11.10;;
65275;SDS011;51875;49.994;14.052;2023-04-30T02:21:59;15.50;;;11.20;;
65275;SDS011;51875;49.994;14.052;2023-04-30T02:23:14;15.35;;;11.18;;
65275;SDS011;51875;49.994;14.052;2023-04-30T02:24:30;18.35;;;12.10;;
65275;SDS011;51875;49.994;14.052;2023-04-30T02:25:46;17.02;;;11.13;;
65275;SDS011;51875;49.994;14.052;2023-04-30T02:27:01;16.67;;;11.07;;
65275;SDS011;51875;49.994;14.052;2023-04-30T02:28:17;16.88;;;11.75;;
65275;SDS011;51875;49.994;14.052;2023-04-30T02:29:32;17.58;;;11.13;;
65275;SDS011;51875;49.994;14.052;2023-04-30T02:30:48;17.55;;;11.75;;
65275;SDS011;51875;49.994;14.052;2023-04-30T02:32:03;14.75;;;10.48;;
65275;SDS011;51875;49.994;14.052;2023-04-30T02:33:19;14.55;;;9.52;;
65275;SDS011;51875;49.994;14.052;2023-04-30T02:34:35;17.15;;;10.77;;
65275;SDS011;51875;49.994;14.052;2023-04-30T02:35:50;14.55;;;10.15;;
65275;SDS011;51875;49.994;14.052;2023-04-30T02:37:06;14.57;;;10.10;;
65275;SDS011;51875;49.994;14.052;2023-04-30T02:38:22;13.55;;;9.80;;
65275;SDS011;51875;49.994;14.052;2023-04-30T02:39:38;12.98;;;9.43;;
65275;SDS011;51875;49.994;14.052;2023-04-30T02:40:53;15.57;;;9.25;;
65275;SDS011;51875;49.994;14.052;2023-04-30T02:42:09;13.43;;;9.10;;
65275;SDS011;51875;49.994;14.052;2023-04-30T02:43:25;16.90;;;10.60;;
65275;SDS011;51875;49.994;14.052;2023-04-30T02:44:41;13.98;;;9.77;;
65275;SDS011;51875;49.994;14.052;2023-04-30T02:45:56;17.38;;;10.90;;
65275;SDS011;51875;49.994;14.052;2023-04-30T02:47:12;14.05;;;10.05;;
65275;SDS011;51875;49.994;14.052;2023-04-30T02:48:27;15.27;;;9.70;;
65275;SDS011;51875;49.994;14.052;2023-04-30T02:49:43;14.40;;;10.65;;
65275;SDS011;51875;49.994;14.052;2023-04-30T02:50:58;14.32;;;10.02;;
65275;SDS011;51875;49.994;14.052;2023-04-30T02:52:14;15.95;;;10.65;;
65275;SDS011;51875;49.994;14.052;2023-04-30T02:53:30;17.30;;;11.15;;
65275;SDS011;51875;49.994;14.052;2023-04-30T02:54:45;20.30;;;11.40;;
65275;SDS011;51875;49.994;14.052;2023-04-30T02:56:01;16.52;;;11.23;;
65275;SDS011;51875;49.994;14.052;2023-04-30T02:57:16;15.35;;;10.63;;
65275;SDS011;51875;49.994;14.052;2023-04-30T02:58:32;15.98;;;10.77;;
65275;SDS011;51875;49.994;14.052;2023-04-30T02:59:48;15.98;;;10.35;;
65275;SDS011;51875;49.994;14.052;2023-04-30T03:01:03;16.55;;;10.63;;
65275;SDS011;51875;49.994;14.052;2023-04-30T03:02:19;17.65;;;11.32;;
65275;SDS011;51875;49.994;14.052;2023-04-30T03:03:35;16.92;;;11.57;;
65275;SDS011;51875;49.994;14.052;2023-04-30T03:04:51;17.92;;;11.88;;
65275;SDS011;51875;49.994;14.052;2023-04-30T03:06:06;17.67;;;12.07;;
65275;SDS011;51875;49.994;14.052;2023-04-30T03:07:22;19.42;;;12.55;;
65275;SDS011;51875;49.994;14.052;2023-04-30T03:08:37;21.02;;;12.80;;
65275;SDS011;51875;49.994;14.052;2023-04-30T03:09:53;19.20;;;12.32;;
65275;SDS011;51875;49.994;14.052;2023-04-30T03:11:08;22.05;;;13.90;;
65275;SDS011;51875;49.994;14.052;2023-04-30T03:12:24;20.83;;;13.85;;
65275;SDS011;51875;49.994;14.052;2023-04-30T03:13:40;19.42;;;12.38;;
65275;SDS011;51875;49.994;14.052;2023-04-30T03:14:57;20.35;;;12.88;;
65275;SDS011;51875;49.994;14.052;2023-04-30T03:16:12;19.83;;;13.07;;
65275;SDS011;51875;49.994;14.052;2023-04-30T03:17:28;20.95;;;13.63;;
65275;SDS011;51875;49.994;14.052;2023-04-30T03:18:44;21.48;;;13.13;;
65275;SDS011;51875;49.994;14.052;2023-04-30T03:20:00;23.05;;;13.85;;
65275;SDS011;51875;49.994;14.052;2023-04-30T03:21:15;21.88;;;14.80;;
65275;SDS011;51875;49.994;14.052;2023-04-30T03:22:31;20.90;;;13.57;;
65275;SDS011;51875;49.994;14.052;2023-04-30T03:23:47;21.42;;;14.25;;
65275;SDS011;51875;49.994;14.052;2023-04-30T03:25:03;21.30;;;14.07;;
65275;SDS011;51875;49.994;14.052;2023-04-30T03:26:19;25.02;;;13.98;;
65275;SDS011;51875;49.994;14.052;2023-04-30T03:27:35;20.73;;;13.68;;
65275;SDS011;51875;49.994;14.052;2023-04-30T03:28:50;20.67;;;13.50;;
65275;SDS011;51875;49.994;14.052;2023-04-30T03:30:06;20.50;;;13.63;;
65275;SDS011;51875;49.994;14.052;2023-04-30T03:31:22;22.48;;;13.73;;
65275;SDS011;51875;49.994;14.052;2023-04-30T03:32:37;23.23;;;13.75;;
65275;SDS011;51875;49.994;14.052;2023-04-30T03:33:53;19.65;;;13.23;;
65275;SDS011;51875;49.994;14.052;2023-04-30T03:35:08;22.55;;;14.23;;
65275;SDS011;51875;49.994;14.052;2023-04-30T03:36:25;21.08;;;14.73;;
65275;SDS011;51875;49.994;14.052;2023-04-30T03:37:41;19.40;;;13.35;;
65275;SDS011;51875;49.994;14.052;2023-04-30T03:38:57;22.02;;;13.57;;
65275;SDS011;51875;49.994;14.052;2023-04-30T03:40:12;18.58;;;12.98;;
65275;SDS011;51875;49.994;14.052;2023-04-30T03:41:28;18.33;;;13.13;;
65275;SDS011;51875;49.994;14.052;2023-04-30T03:42:44;19.90;;;12.90;;
65275;SDS011;51875;49.994;14.052;2023-04-30T03:43:59;21.52;;;13.98;;
65275;SDS011;51875;49.994;14.052;2023-04-30T03:45:15;20.80;;;13.32;;
65275;SDS011;51875;49.994;14.052;2023-04-30T03:46:30;23.35;;;14.63;;
65275;SDS011;51875;49.994;14.052;2023-04-30T03:47:46;22.45;;;14.05;;
65275;SDS011;51875;49.994;14.052;2023-04-30T03:49:02;21.65;;;13.73;;
65275;SDS011;51875;49.994;14.052;2023-04-30T03:50:18;19.13;;;13.13;;
65275;SDS011;51875;49.994;14.052;2023-04-30T03:51:35;23.35;;;14.32;;
65275;SDS011;51875;49.994;14.052;2023-04-30T03:52:53;21.58;;;13.15;;
65275;SDS011;51875;49.994;14.052;2023-04-30T03:54:09;21.58;;;14.00;;
65275;SDS011;51875;49.994;14.052;2023-04-30T03:55:24;19.30;;;13.13;;
65275;SDS011;51875;49.994;14.052;2023-04-30T03:56:40;22.77;;;14.15;;
65275;SDS011;51875;49.994;14.052;2023-04-30T03:57:56;21.63;;;13.32;;
65275;SDS011;51875;49.994;14.052;2023-04-30T03:59:12;18.63;;;13.63;;
65275;SDS011;51875;49.994;14.052;2023-04-30T04:00:28;25.92;;;13.70;;
65275;SDS011;51875;49.994;14.052;2023-04-30T04:01:43;20.83;;;13.95;;
65275;SDS011;51875;49.994;14.052;2023-04-30T04:02:59;20.67;;;13.68;;
65275;SDS011;51875;49.994;14.052;2023-04-30T04:04:15;20.08;;;13.15;;
65275;SDS011;51875;49.994;14.052;2023-04-30T04:05:30;21.13;;;12.98;;
65275;SDS011;51875;49.994;14.052;2023-04-30T04:06:46;23.50;;;13.85;;
65275;SDS011;51875;49.994;14.052;2023-04-30T04:08:01;22.38;;;13.95;;
65275;SDS011;51875;49.994;14.052;2023-04-30T04:09:17;19.55;;;13.35;;
65275;SDS011;51875;49.994;14.052;2023-04-30T04:10:36;21.25;;;13.10;;
65275;SDS011;51875;49.994;14.052;2023-04-30T04:11:52;24.90;;;15.68;;
65275;SDS011;51875;49.994;14.052;2023-04-30T04:13:08;19.23;;;12.82;;
65275;SDS011;51875;49.994;14.052;2023-04-30T04:14:23;18.95;;;12.43;;
65275;SDS011;51875;49.994;14.052;2023-04-30T04:15:39;16.52;;;11.60;;
65275;SDS011;51875;49.994;14.052;2023-04-30T04:16:55;19.52;;;11.68;;
65275;SDS011;51875;49.994;14.052;2023-04-30T04:18:11;18.50;;;12.80;;
65275;SDS011;51875;49.994;14.052;2023-04-30T04:19:27;18.90;;;12.93;;
65275;SDS011;51875;49.994;14.052;2023-04-30T04:20:43;19.75;;;13.02;;
65275;SDS011;51875;49.994;14.052;2023-04-30T04:21:58;21.00;;;12.88;;
65275;SDS011;51875;49.994;14.052;2023-04-30T04:23:14;16.33;;;11.90;;
65275;SDS011;51875;49.994;14.052;2023-04-30T04:24:31;18.73;;;12.38;;
65275;SDS011;51875;49.994;14.052;2023-04-30T04:25:47;19.35;;;12.98;;
65275;SDS011;51875;49.994;14.052;2023-04-30T04:27:06;21.58;;;13.60;;
65275;SDS011;51875;49.994;14.052;2023-04-30T04:28:22;22.30;;;13.32;;
65275;SDS011;51875;49.994;14.052;2023-04-30T04:29:37;24.33;;;14.70;;
65275;SDS011;51875;49.994;14.052;2023-04-30T04:30:53;24.45;;;14.20;;
65275;SDS011;51875;49.994;14.052;2023-04-30T04:32:08;23.38;;;14.80;;
65275;SDS011;51875;49.994;14.052;2023-04-30T04:33:24;21.42;;;14.18;;
65275;SDS011;51875;49.994;14.052;2023-04-30T04:34:39;23.55;;;15.15;;
65275;SDS011;51875;49.994;14.052;2023-04-30T04:35:57;22.30;;;13.52;;
65275;SDS011;51875;49.994;14.052;2023-04-30T04:37:13;24.85;;;15.00;;
65275;SDS011;51875;49.994;14.052;2023-04-30T04:38:29;21.23;;;14.00;;
65275;SDS011;51875;49.994;14.052;2023-04-30T04:39:45;23.95;;;14.60;;
65275;SDS011;51875;49.994;14.052;2023-04-30T04:41:00;22.45;;;14.45;;
65275;SDS011;51875;49.994;14.052;2023-04-30T04:42:16;22.20;;;13.80;;
65275;SDS011;51875;49.994;14.052;2023-04-30T04:43:32;23.52;;;14.45;;
65275;SDS011;51875;49.994;14.052;2023-04-30T04:44:47;24.60;;;13.73;;
65275;SDS011;51875;49.994;14.052;2023-04-30T04:46:03;23.83;;;13.75;;
65275;SDS011;51875;49.994;14.052;2023-04-30T04:47:19;21.70;;;13.98;;
65275;SDS011;51875;49.994;14.052;2023-04-30T04:48:35;23.08;;;14.70;;
65275;SDS011;51875;49.994;14.052;2023-04-30T04:49:51;19.20;;;12.82;;
65275;SDS011;51875;49.994;14.052;2023-04-30T04:51:07;21.73;;;13.55;;
65275;SDS011;51875;49.994;14.052;2023-04-30T04:52:23;20.98;;;13.38;;
65275;SDS011;51875;49.994;14.052;2023-04-30T04:53:38;18.60;;;13.63;;
65275;SDS011;51875;49.994;14.052;2023-04-30T04:54:54;21.08;;;13.95;;
65275;SDS011;51875;49.994;14.052;2023-04-30T04:56:10;20.67;;;13.85;;
65275;SDS011;51875;49.994;14.052;2023-04-30T04:57:25;22.23;;;14.30;;
65275;SDS011;51875;49.994;14.052;2023-04-30T04:58:41;22.63;;;13.95;;
65275;SDS011;51875;49.994;14.052;2023-04-30T04:59:58;23.55;;;14.38;;
65275;SDS011;51875;49.994;14.052;2023-04-30T05:01:13;22.80;;;13.77;;
65275;SDS011;51875;49.994;14.052;2023-04-30T05:02:29;25.42;;;14.73;;
65275;SDS011;51875;49.994;14.052;2023-04-30T05:03:45;23.60;;;13.90;;
65275;SDS011;51875;49.994;14.052;2023-04-30T05:05:01;23.63;;;14.25;;
65275;SDS011;51875;49.994;14.052;2023-04-30T05:06:17;23.02;;;14.70;;
65275;SDS011;51875;49.994;14.052;2023-04-30T05:07:33;25.48;;;15.25;;
65275;SDS011;51875;49.994;14.052;2023-04-30T05:08:49;24.00;;;15.07;;
65275;SDS011;51875;49.994;14.052;2023-04-30T05:10:05;23.15;;;15.13;;
65275;SDS011;51875;49.994;14.052;2023-04-30T05:11:21;26.17;;;14.70;;
65275;SDS011;51875;49.994;14.052;2023-04-30T05:12:37;19.02;;;12.25;;
65275;SDS011;51875;49.994;14.052;2023-04-30T05:13:53;25.23;;;15.32;;
65275;SDS011;51875;49.994;14.052;2023-04-30T05:15:08;23.52;;;14.73;;
65275;SDS011;51875;49.994;14.052;2023-04-30T05:16:24;22.85;;;14.75;;
65275;SDS011;51875;49.994;14.052;2023-04-30T05:17:41;24.40;;;14.55;;
65275;SDS011;51875;49.994;14.052;2023-04-30T05:18:56;23.48;;;14.00;;
65275;SDS011;51875;49.994;14.052;2023-04-30T05:20:12;24.27;;;14.98;;
65275;SDS011;51875;49.994;14.052;2023-04-30T05:21:28;20.85;;;13.75;;
65275;SDS011;51875;49.994;14.052;2023-04-30T05:22:43;25.23;;;15.02;;
65275;SDS011;51875;49.994;14.052;2023-04-30T05:23:59;25.67;;;15.32;;
65275;SDS011;51875;49.994;14.052;2023-04-30T05:25:15;24.00;;;14.40;;
65275;SDS011;51875;49.994;14.052;2023-04-30T05:26:30;24.13;;;15.40;;
65275;SDS011;51875;49.994;14.052;2023-04-30T05:27:46;20.90;;;14.63;;
65275;SDS011;51875;49.994;14.052;2023-04-30T05:29:01;23.10;;;14.43;;
65275;SDS011;51875;49.994;14.052;2023-04-30T05:30:18;23.55;;;14.90;;
65275;SDS011;51875;49.994;14.052;2023-04-30T05:31:34;22.08;;;14.85;;
65275;SDS011;51875;49.994;14.052;2023-04-30T05:32:50;23.88;;;14.55;;
65275;SDS011;51875;49.994;14.052;2023-04-30T05:34:07;24.23;;;14.98;;
65275;SDS011;51875;49.994;14.052;2023-04-30T05:35:23;21.73;;;13.32;;
65275;SDS011;51875;49.994;14.052;2023-04-30T05:36:39;23.63;;;14.60;;
65275;SDS011;51875;49.994;14.052;2023-04-30T05:37:54;21.75;;;12.93;;
65275;SDS011;51875;49.994;14.052;2023-04-30T05:39:10;22.67;;;13.50;;
65275;SDS011;51875;49.994;14.052;2023-04-30T05:40:25;19.60;;;12.18;;
65275;SDS011;51875;49.994;14.052;2023-04-30T05:41:43;18.02;;;11.57;;
65275;SDS011;51875;49.994;14.052;2023-04-30T05:42:58;21.00;;;13.55;;
65275;SDS011;51875;49.994;14.052;2023-04-30T05:44:14;21.10;;;13.27;;
65275;SDS011;51875;49.994;14.052;2023-04-30T05:45:29;22.60;;;13.95;;
65275;SDS011;51875;49.994;14.052;2023-04-30T05:46:45;19.55;;;13.25;;
65275;SDS011;51875;49.994;14.052;2023-04-30T05:48:01;18.65;;;12.68;;
65275;SDS011;51875;49.994;14.052;2023-04-30T05:49:16;20.30;;;13.50;;
65275;SDS011;51875;49.994;14.052;2023-04-30T05:50:32;22.25;;;12.27;;
65275;SDS011;51875;49.994;14.052;2023-04-30T05:51:48;16.98;;;11.80;;
65275;SDS011;51875;49.994;14.052;2023-04-30T05:53:03;15.07;;;9.95;;
65275;SDS011;51875;49.994;14.052;2023-04-30T05:54:19;19.30;;;11.43;;
65275;SDS011;51875;49.994;14.052;2023-04-30T05:55:34;20.23;;;10.75;;
65275;SDS011;51875;49.994;14.052;2023-04-30T05:56:50;16.02;;;11.05;;
65275;SDS011;51875;49.994;14.052;2023-04-30T05:58:07;15.05;;;10.55;;
65275;SDS011;51875;49.994;14.052;2023-04-30T05:59:23;18.65;;;11.18;;
65275;SDS011;51875;49.994;14.052;2023-04-30T06:00:39;16.55;;;11.23;;
65275;SDS011;51875;49.994;14.052;2023-04-30T06:01:55;15.90;;;10.93;;
65275;SDS011;51875;49.994;14.052;2023-04-30T06:03:11;16.08;;;9.68;;
65275;SDS011;51875;49.994;14.052;2023-04-30T06:04:27;18.80;;;10.48;;
65275;SDS011;51875;49.994;14.052;2023-04-30T06:05:42;16.75;;;10.20;;
65275;SDS011;51875;49.994;14.052;2023-04-30T06:06:59;17.20;;;10.60;;
65275;SDS011;51875;49.994;14.052;2023-04-30T06:08:14;16.52;;;10.52;;
65275;SDS011;51875;49.994;14.052;2023-04-30T06:09:30;14.95;;;10.68;;
65275;SDS011;51875;49.994;14.052;2023-04-30T06:10:46;15.63;;;10.15;;
65275;SDS011;51875;49.994;14.052;2023-04-30T06:12:02;15.82;;;10.65;;
65275;SDS011;51875;49.994;14.052;2023-04-30T06:13:18;15.60;;;10.55;;
65275;SDS011;51875;49.994;14.052;2023-04-30T06:14:34;20.48;;;12.10;;
65275;SDS011;51875;49.994;14.052;2023-04-30T06:15:49;15.90;;;10.35;;
65275;SDS011;51875;49.994;14.052;2023-04-30T06:17:05;15.80;;;10.65;;
65275;SDS011;51875;49.994;14.052;2023-04-30T06:18:21;13.75;;;9.35;;
65275;SDS011;51875;49.994;14.052;2023-04-30T06:19:36;13.73;;;9.95;;
65275;SDS011;51875;49.994;14.052;2023-04-30T06:20:53;15.35;;;9.98;;
65275;SDS011;51875;49.994;14.052;2023-04-30T06:22:10;14.55;;;9.73;;
65275;SDS011;51875;49.994;14.052;2023-04-30T06:23:25;14.43;;;9.52;;
65275;SDS011;51875;49.994;14.052;2023-04-30T06:24:41;14.15;;;8.88;;
65275;SDS011;51875;49.994;14.052;2023-04-30T06:25:56;12.77;;;8.50;;
65275;SDS011;51875;49.994;14.052;2023-04-30T06:27:12;12.30;;;8.90;;
65275;SDS011;51875;49.994;14.052;2023-04-30T06:28:27;14.82;;;8.82;;
65275;SDS011;51875;49.994;14.052;2023-04-30T06:29:43;12.75;;;8.32;;
65275;SDS011;51875;49.994;14.052;2023-04-30T06:30:59;11.73;;;7.82;;
65275;SDS011;51875;49.994;14.052;2023-04-30T06:32:14;11.52;;;8.13;;
65275;SDS011;51875;49.994;14.052;2023-04-30T06:33:31;9.80;;;7.57;;
65275;SDS011;51875;49.994;14.052;2023-04-30T06:34:46;11.77;;;7.63;;
65275;SDS011;51875;49.994;14.052;2023-04-30T06:36:02;12.93;;;8.05;;
65275;SDS011;51875;49.994;14.052;2023-04-30T06:37:18;12.75;;;7.50;;
65275;SDS011;51875;49.994;14.052;2023-04-30T06:38:33;10.77;;;7.80;;
65275;SDS011;51875;49.994;14.052;2023-04-30T06:39:49;12.73;;;8.65;;
65275;SDS011;51875;49.994;14.052;2023-04-30T06:41:06;11.18;;;7.90;;
65275;SDS011;51875;49.994;14.052;2023-04-30T06:42:22;11.82;;;8.48;;
65275;SDS011;51875;49.994;14.052;2023-04-30T06:43:38;13.13;;;8.60;;
65275;SDS011;51875;49.994;14.052;2023-04-30T06:44:54;12.82;;;8.77;;
65275;SDS011;51875;49.994;14.052;2023-04-30T06:46:09;14.10;;;8.13;;
65275;SDS011;51875;49.994;14.052;2023-04-30T06:47:25;13.07;;;9.00;;
65275;SDS011;51875;49.994;14.052;2023-04-30T06:48:41;13.30;;;8.02;;
65275;SDS011;51875;49.994;14.052;2023-04-30T06:49:56;12.05;;;7.97;;
65275;SDS011;51875;49.994;14.052;2023-04-30T06:51:12;13.40;;;8.60;;
65275;SDS011;51875;49.994;14.052;2023-04-30T06:52:29;12.80;;;7.15;;
65275;SDS011;51875;49.994;14.052;2023-04-30T06:53:45;12.75;;;8.15;;
65275;SDS011;51875;49.994;14.052;2023-04-30T06:55:00;11.70;;;8.25;;
65275;SDS011;51875;49.994;14.052;2023-04-30T06:56:16;12.00;;;8.10;;
65275;SDS011;51875;49.994;14.052;2023-04-30T06:57:32;10.77;;;7.97;;
65275;SDS011;51875;49.994;14.052;2023-04-30T06:58:47;12.95;;;8.27;;
65275;SDS011;51875;49.994;14.052;2023-04-30T07:00:05;10.70;;;7.32;;
65275;SDS011;51875;49.994;14.052;2023-04-30T07:01:21;9.88;;;5.85;;
65275;SDS011;51875;49.994;14.052;2023-04-30T07:02:37;13.10;;;8.27;;
65275;SDS011;51875;49.994;14.052;2023-04-30T07:03:53;10.20;;;7.18;;
65275;SDS011;51875;49.994;14.052;2023-04-30T07:05:09;12.10;;;7.53;;
65275;SDS011;51875;49.994;14.052;2023-04-30T07:06:25;11.40;;;7.40;;
65275;SDS011;51875;49.994;14.052;2023-04-30T07:07:41;11.23;;;6.90;;
65275;SDS011;51875;49.994;14.052;2023-04-30T07:08:56;10.48;;;7.30;;
65275;SDS011;51875;49.994;14.052;2023-04-30T07:10:12;11.15;;;7.20;;
65275;SDS011;51875;49.994;14.052;2023-04-30T07:11:28;11.38;;;7.28;;
65275;SDS011;51875;49.994;14.052;2023-04-30T07:12:44;10.65;;;7.35;;
65275;SDS011;51875;49.994;14.052;2023-04-30T07:13:59;8.70;;;6.53;;
65275;SDS011;51875;49.994;14.052;2023-04-30T07:15:15;11.00;;;6.50;;
65275;SDS011;51875;49.994;14.052;2023-04-30T07:16:30;11.57;;;7.80;;
65275;SDS011;51875;49.994;14.052;2023-04-30T07:17:46;10.57;;;7.40;;
65275;SDS011;51875;49.994;14.052;2023-04-30T07:19:02;13.98;;;7.65;;
65275;SDS011;51875;49.994;14.052;2023-04-30T07:20:17;9.45;;;6.97;;
65275;SDS011;51875;49.994;14.052;2023-04-30T07:21:33;10.80;;;7.55;;
65275;SDS011;51875;49.994;14.052;2023-04-30T07:22:48;9.73;;;6.47;;
65275;SDS011;51875;49.994;14.052;2023-04-30T07:24:04;8.27;;;6.55;;
65275;SDS011;51875;49.994;14.052;2023-04-30T07:25:20;9.57;;;5.30;;
65275;SDS011;51875;49.994;14.052;2023-04-30T07:26:35;7.10;;;5.28;;
65275;SDS011;51875;49.994;14.052;2023-04-30T07:27:51;6.82;;;5.47;;
65275;SDS011;51875;49.994;14.052;2023-04-30T07:29:07;8.07;;;5.95;;
65275;SDS011;51875;49.994;14.052;2023-04-30T07:30:23;7.13;;;5.47;;
65275;SDS011;51875;49.994;14.052;2023-04-30T07:31:38;7.65;;;6.05;;
65275;SDS011;51875;49.994;14.052;2023-04-30T07:32:54;8.93;;;5.40;;
65275;SDS011;51875;49.994;14.052;2023-04-30T07:34:10;9.60;;;5.55;;
65275;SDS011;51875;49.994;14.052;2023-04-30T07:35:27;8.38;;;5.47;;
65275;SDS011;51875;49.994;14.052;2023-04-30T07:36:42;7.57;;;5.40;;
65275;SDS011;51875;49.994;14.052;2023-04-30T07:37:58;7.70;;;5.18;;
65275;SDS011;51875;49.994;14.052;2023-04-30T07:39:14;7.78;;;4.20;;